createdAt,value
2023-05-07T00:02:05.765Z,4.67
2023-05-07T00:04:38.733Z,5.17
2023-05-07T00:07:07.812Z,4.87
2023-05-07T00:09:36.622Z,4.63
2023-05-07T00:12:05.308Z,4.43
2023-05-07T00:14:35.029Z,4.80
2023-05-07T00:17:03.529Z,4.87
2023-05-07T00:19:31.756Z,5.00
2023-05-07T00:22:00.412Z,4.63
2023-05-07T00:24:29.265Z,4.60
2023-05-07T00:26:59.130Z,4.93
2023-05-07T00:29:27.831Z,4.50
2023-05-07T00:32:00.307Z,4.63
2023-05-07T00:34:28.677Z,4.40
2023-05-07T00:36:57.531Z,4.50
2023-05-07T00:39:26.174Z,4.73
2023-05-07T00:41:54.702Z,4.67
2023-05-07T00:44:23.146Z,4.80
2023-05-07T00:46:52.037Z,4.70
2023-05-07T00:49:23.370Z,4.57
2023-05-07T00:51:53.149Z,4.37
2023-05-07T00:54:22.095Z,4.40
2023-05-07T00:56:50.705Z,4.13
2023-05-07T00:59:19.539Z,4.23
2023-05-07T01:01:48.125Z,3.93
2023-05-07T01:04:16.512Z,4.40
2023-05-07T01:06:47.370Z,4.33
2023-05-07T01:09:16.502Z,3.73
2023-05-07T01:11:45.864Z,3.90
2023-05-07T01:14:14.282Z,3.67
2023-05-07T01:16:42.681Z,3.90
2023-05-07T01:19:14.973Z,3.80
2023-05-07T01:21:50.066Z,3.97
2023-05-07T01:24:20.807Z,4.10
2023-05-07T01:26:49.108Z,4.07
2023-05-07T01:29:17.387Z,4.23
2023-05-07T01:31:46.635Z,4.40
2023-05-07T01:34:17.914Z,4.40
2023-05-07T01:36:47.754Z,4.80
2023-05-07T01:39:17.248Z,4.83
2023-05-07T01:41:48.448Z,4.40
2023-05-07T01:44:18.083Z,4.47
2023-05-07T01:46:47.931Z,4.27
2023-05-07T01:49:16.631Z,4.03
2023-05-07T01:51:45.656Z,4.77
2023-05-07T01:54:14.279Z,4.50
2023-05-07T01:56:43.234Z,3.93
2023-05-07T01:59:14.750Z,4.50
2023-05-07T02:01:43.040Z,5.40
2023-05-07T02:04:11.692Z,4.60
2023-05-07T02:06:39.924Z,5.20
2023-05-07T02:09:10.015Z,5.30
2023-05-07T02:11:38.576Z,5.60
2023-05-07T02:14:07.297Z,5.50
2023-05-07T02:16:37.038Z,5.07
2023-05-07T02:19:05.451Z,5.57
2023-05-07T02:21:33.808Z,5.40
2023-05-07T02:24:02.201Z,6.00
2023-05-07T02:26:30.892Z,5.47
2023-05-07T02:28:59.326Z,5.63
2023-05-07T02:31:28.010Z,5.70
2023-05-07T02:33:58.006Z,5.37
2023-05-07T02:36:27.569Z,5.50
2023-05-07T02:38:56.269Z,5.20
2023-05-07T02:41:24.760Z,5.43
2023-05-07T02:43:53.553Z,5.40
2023-05-07T02:46:22.541Z,6.10
2023-05-07T02:48:50.946Z,5.97
2023-05-07T02:51:26.176Z,5.80
2023-05-07T02:53:54.682Z,5.70
2023-05-07T02:56:23.064Z,5.70
2023-05-07T02:58:51.442Z,5.90
2023-05-07T03:01:20.070Z,6.17
2023-05-07T03:03:48.759Z,5.80
2023-05-07T03:06:17.561Z,6.20
2023-05-07T03:08:47.283Z,6.30
2023-05-07T03:11:16.671Z,6.67
2023-05-07T03:13:45.269Z,6.87
2023-05-07T03:16:13.552Z,6.90
2023-05-07T03:18:42.847Z,6.73
2023-05-07T03:21:11.138Z,6.87
2023-05-07T03:23:39.873Z,7.70
2023-05-07T03:26:09.559Z,7.70
2023-05-07T03:28:38.326Z,7.47
2023-05-07T03:31:07.788Z,8.10
2023-05-07T03:33:36.714Z,7.47
2023-05-07T03:36:05.832Z,7.53
2023-05-07T03:38:34.501Z,7.97
2023-05-07T03:41:03.562Z,7.83
2023-05-07T03:43:33.825Z,8.20
2023-05-07T03:46:02.667Z,8.57
2023-05-07T03:48:31.601Z,8.47
2023-05-07T03:51:00.919Z,8.60
2023-05-07T03:53:29.973Z,8.30
2023-05-07T03:55:58.760Z,8.10
2023-05-07T03:58:28.448Z,8.80
2023-05-07T04:00:59.266Z,8.20
2023-05-07T04:03:29.154Z,8.53
2023-05-07T04:05:58.675Z,8.40
2023-05-07T04:08:28.350Z,9.03
2023-05-07T04:11:01.646Z,8.83
2023-05-07T04:13:31.548Z,9.10
2023-05-07T04:16:04.102Z,9.13
2023-05-07T04:18:36.717Z,8.93
2023-05-07T04:21:06.047Z,9.27
2023-05-07T04:23:35.419Z,9.10
2023-05-07T04:26:04.175Z,8.87
2023-05-07T04:28:32.485Z,8.57
2023-05-07T04:31:02.142Z,9.07
2023-05-07T04:33:30.816Z,8.80
2023-05-07T04:36:04.225Z,9.47
2023-05-07T04:38:32.925Z,9.33
2023-05-07T04:41:05.262Z,9.63
2023-05-07T04:43:33.487Z,9.80
2023-05-07T04:46:03.113Z,10.27
2023-05-07T04:48:31.396Z,9.83
2023-05-07T04:50:59.668Z,9.43
2023-05-07T04:53:27.952Z,9.70
2023-05-07T04:56:00.483Z,9.67
2023-05-07T04:58:32.649Z,8.97
2023-05-07T05:01:03.007Z,9.83
2023-05-07T05:03:32.200Z,9.37
2023-05-07T05:06:00.869Z,9.33
2023-05-07T05:08:29.024Z,9.73
2023-05-07T05:10:57.381Z,9.40
2023-05-07T05:13:25.542Z,9.87
2023-05-07T05:15:53.786Z,10.00
2023-05-07T05:18:23.478Z,10.03
2023-05-07T05:20:51.757Z,9.53
2023-05-07T05:23:19.881Z,8.97
2023-05-07T05:25:48.085Z,9.67
2023-05-07T05:28:16.335Z,10.00
2023-05-07T05:30:44.530Z,9.50
2023-05-07T05:33:12.830Z,9.83
2023-05-07T05:35:42.423Z,9.97
2023-05-07T05:38:10.664Z,9.47
2023-05-07T05:40:38.882Z,9.87
2023-05-07T05:43:08.189Z,10.00
2023-05-07T05:45:36.411Z,9.83
2023-05-07T05:48:04.909Z,9.03
2023-05-07T05:50:33.322Z,9.63
2023-05-07T05:53:02.876Z,9.43
2023-05-07T05:55:33.398Z,9.63
2023-05-07T05:58:01.869Z,10.73
2023-05-07T06:00:30.674Z,9.60
2023-05-07T06:02:58.925Z,9.77
2023-05-07T06:05:27.271Z,9.40
2023-05-07T06:07:58.048Z,9.70
2023-05-07T06:10:28.257Z,8.90
2023-05-07T06:12:56.620Z,9.00
2023-05-07T06:15:25.020Z,9.37
2023-05-07T06:17:53.293Z,9.40
2023-05-07T06:20:21.918Z,9.20
2023-05-07T06:22:50.198Z,8.97
2023-05-07T06:25:18.781Z,9.60
2023-05-07T06:27:48.419Z,9.33
2023-05-07T06:30:16.847Z,9.37
2023-05-07T06:32:45.277Z,8.87
2023-05-07T06:35:13.510Z,8.70
2023-05-07T06:37:43.629Z,10.07
2023-05-07T06:40:13.596Z,11.00
2023-05-07T06:42:42.245Z,11.30
2023-05-07T06:45:13.295Z,10.70
2023-05-07T06:47:41.694Z,10.30
2023-05-07T06:50:11.854Z,10.27
2023-05-07T06:52:40.362Z,10.00
2023-05-07T06:55:10.639Z,9.53
2023-05-07T06:57:38.757Z,9.83
2023-05-07T07:00:10.453Z,9.40
2023-05-07T07:02:40.709Z,9.27
2023-05-07T07:05:10.764Z,9.23
2023-05-07T07:07:39.108Z,9.20
2023-05-07T07:10:09.216Z,9.80
2023-05-07T07:12:37.831Z,10.93
2023-05-07T07:15:08.223Z,11.47
2023-05-07T07:17:36.388Z,10.70
2023-05-07T07:20:08.786Z,10.30
2023-05-07T07:22:38.720Z,12.63
2023-05-07T07:25:08.083Z,12.27
2023-05-07T07:27:36.794Z,13.87
2023-05-07T07:30:09.369Z,13.13
2023-05-07T07:32:38.376Z,12.23
2023-05-07T07:35:10.216Z,11.83
2023-05-07T07:37:38.575Z,11.63
2023-05-07T07:40:08.783Z,13.97
2023-05-07T07:42:37.085Z,14.10
2023-05-07T07:45:06.745Z,12.83
2023-05-07T07:47:35.026Z,11.93
2023-05-07T07:50:03.367Z,11.70
2023-05-07T07:52:33.172Z,11.07
2023-05-07T07:55:01.350Z,11.60
2023-05-07T07:57:30.033Z,11.67
2023-05-07T07:59:58.424Z,11.57
2023-05-07T08:02:26.908Z,11.90
2023-05-07T08:04:55.202Z,11.17
2023-05-07T08:07:23.803Z,12.43
2023-05-07T08:09:53.573Z,12.68
2023-05-07T08:12:21.942Z,12.95
2023-05-07T08:14:50.445Z,13.07
2023-05-07T08:17:18.986Z,11.40
2023-05-07T08:19:47.405Z,13.35
2023-05-07T08:22:15.675Z,13.70
2023-05-07T08:24:43.917Z,13.52
2023-05-07T08:27:13.529Z,12.32
2023-05-07T08:29:41.877Z,12.27
2023-05-07T08:32:10.169Z,11.00
2023-05-07T08:34:38.347Z,9.57
2023-05-07T08:37:06.806Z,10.82
2023-05-07T08:39:34.984Z,11.85
2023-05-07T08:42:05.698Z,10.50
2023-05-07T08:44:37.062Z,11.70
2023-05-07T08:47:06.837Z,11.98
2023-05-07T08:49:36.912Z,12.20
2023-05-07T08:52:07.017Z,10.82
2023-05-07T08:54:39.375Z,10.23
2023-05-07T08:57:07.560Z,12.25
2023-05-07T08:59:37.849Z,10.07
2023-05-07T09:02:10.165Z,11.20
2023-05-07T09:04:38.339Z,10.30
2023-05-07T09:07:07.437Z,11.57
2023-05-07T09:09:35.940Z,10.18
2023-05-07T09:12:04.833Z,11.18
2023-05-07T09:14:32.943Z,11.43
2023-05-07T09:17:02.480Z,10.70
2023-05-07T09:19:30.771Z,11.45
2023-05-07T09:22:02.705Z,12.18
2023-05-07T09:24:34.983Z,12.40
2023-05-07T09:27:03.902Z,11.13
2023-05-07T09:29:36.341Z,10.80
2023-05-07T09:32:07.802Z,12.07
2023-05-07T09:34:37.184Z,10.70
2023-05-07T09:37:09.563Z,9.77
2023-05-07T09:39:42.876Z,9.95
2023-05-07T09:42:12.455Z,9.52
2023-05-07T09:44:43.554Z,10.15
2023-05-07T09:47:20.228Z,9.75
2023-05-07T09:49:50.422Z,9.30
2023-05-07T09:52:19.465Z,9.48
2023-05-07T09:54:49.338Z,9.52
2023-05-07T09:57:19.133Z,10.80
2023-05-07T09:59:50.321Z,9.95
2023-05-07T10:02:22.143Z,9.23
2023-05-07T10:04:51.501Z,10.27
2023-05-07T10:07:20.401Z,9.90
2023-05-07T10:09:49.449Z,10.48
2023-05-07T10:12:18.735Z,9.85
2023-05-07T10:14:49.256Z,9.90
2023-05-07T10:17:20.336Z,9.27
2023-05-07T10:19:49.215Z,8.70
2023-05-07T10:22:18.869Z,9.90
2023-05-07T10:24:51.045Z,9.10
2023-05-07T10:27:21.401Z,8.95
2023-05-07T10:30:11.052Z,10.40
2023-05-07T10:32:44.853Z,9.23
2023-05-07T10:35:20.675Z,9.10
2023-05-07T10:37:50.328Z,8.85
2023-05-07T10:40:20.498Z,8.60
2023-05-07T10:43:00.488Z,8.95
2023-05-07T10:45:29.466Z,8.45
2023-05-07T10:50:48.301Z,9.35
2023-05-07T10:53:30.025Z,9.23
2023-05-07T10:56:28.920Z,8.23
2023-05-07T10:58:58.565Z,9.77
2023-05-07T11:01:53.201Z,9.13
2023-05-07T11:04:27.477Z,8.60
2023-05-07T11:07:32.826Z,8.10
2023-05-07T11:10:07.109Z,10.27
2023-05-07T11:12:57.288Z,8.32
2023-05-07T11:15:46.771Z,8.82
2023-05-07T11:18:16.898Z,8.70
2023-05-07T11:20:58.702Z,8.23
2023-05-07T11:24:01.063Z,8.20
2023-05-07T11:26:32.258Z,7.57
2023-05-07T11:29:01.498Z,7.60
2023-05-07T11:31:31.075Z,8.00
2023-05-07T11:34:00.516Z,8.57
2023-05-07T11:36:35.607Z,8.00
2023-05-07T11:39:04.257Z,6.78
2023-05-07T11:41:38.029Z,6.05
2023-05-07T11:44:06.671Z,6.93
2023-05-07T11:46:35.915Z,6.07
2023-05-07T11:49:05.435Z,7.07
2023-05-07T11:51:35.217Z,6.72
2023-05-07T11:54:09.670Z,7.15
2023-05-07T11:56:38.061Z,6.35
2023-05-07T11:59:07.266Z,6.72
2023-05-07T12:01:38.514Z,7.20
2023-05-07T12:04:07.523Z,6.25
2023-05-07T12:06:40.237Z,7.00
2023-05-07T12:09:12.485Z,7.18
2023-05-07T12:11:41.853Z,7.88
2023-05-07T12:14:13.469Z,7.00
2023-05-07T12:16:42.682Z,6.65
2023-05-07T12:19:15.661Z,7.38
2023-05-07T12:21:45.722Z,7.70
2023-05-07T12:24:14.044Z,7.32
2023-05-07T12:26:42.785Z,7.75
2023-05-07T12:29:11.007Z,7.30
2023-05-07T12:31:42.662Z,8.07
2023-05-07T12:34:12.932Z,7.90
2023-05-07T12:36:42.712Z,7.32
2023-05-07T12:39:12.191Z,6.78
2023-05-07T12:41:55.949Z,6.40
2023-05-07T12:44:25.582Z,6.50
2023-05-07T12:46:54.030Z,7.30
2023-05-07T12:49:25.297Z,6.22
2023-05-07T12:51:53.879Z,6.35
2023-05-07T12:54:33.885Z,6.22
2023-05-07T12:57:07.521Z,6.40
2023-05-07T12:59:38.161Z,5.78
2023-05-07T13:02:11.027Z,6.60
2023-05-07T13:04:41.592Z,7.22
2023-05-07T13:07:09.872Z,7.90
2023-05-07T13:09:39.536Z,7.35
2023-05-07T13:12:08.185Z,7.43
2023-05-07T13:14:42.845Z,6.50
2023-05-07T13:17:11.053Z,5.97
2023-05-07T13:19:39.402Z,6.57
2023-05-07T13:22:10.440Z,6.32
2023-05-07T13:24:42.626Z,5.53
2023-05-07T13:27:10.849Z,6.03
2023-05-07T13:29:39.286Z,6.28
2023-05-07T13:32:07.430Z,5.68
2023-05-07T13:34:35.650Z,5.88
2023-05-07T13:37:03.839Z,6.15
2023-05-07T13:39:31.930Z,6.15
2023-05-07T13:42:01.620Z,6.22
2023-05-07T13:44:30.825Z,5.63
2023-05-07T13:46:58.984Z,6.10
2023-05-07T13:49:27.204Z,5.50
2023-05-07T13:51:55.378Z,5.78
2023-05-07T13:54:23.715Z,6.10
2023-05-07T13:56:51.966Z,6.07
2023-05-07T13:59:21.646Z,5.65
2023-05-07T14:01:50.613Z,5.30
2023-05-07T14:04:19.056Z,5.32
2023-05-07T14:06:47.859Z,5.22
2023-05-07T14:09:16.019Z,5.68
2023-05-07T14:11:44.372Z,6.15
2023-05-07T14:14:12.791Z,5.93
2023-05-07T14:16:42.493Z,5.85
2023-05-07T14:19:11.084Z,5.30
2023-05-07T14:21:39.456Z,5.15
2023-05-07T14:24:09.566Z,5.28
2023-05-07T14:26:37.854Z,5.05
2023-05-07T14:29:06.233Z,5.40
2023-05-07T14:31:39.780Z,5.05
2023-05-07T14:34:10.109Z,5.20
2023-05-07T14:36:38.874Z,5.47
2023-05-07T14:39:07.966Z,5.20
2023-05-07T14:41:36.371Z,5.40
2023-05-07T14:44:05.064Z,5.03
2023-05-07T14:46:33.367Z,4.63
2023-05-07T14:49:04.695Z,4.70
2023-05-07T14:51:35.410Z,5.03
2023-05-07T14:54:04.264Z,5.38
2023-05-07T14:56:32.555Z,5.40
2023-05-07T14:59:02.333Z,5.45
2023-05-07T15:01:31.250Z,4.88
2023-05-07T15:04:00.033Z,5.32
2023-05-07T15:06:28.709Z,5.28
2023-05-07T15:08:58.211Z,5.18
2023-05-07T15:11:26.461Z,5.00
2023-05-07T15:13:54.610Z,4.85
2023-05-07T15:16:23.172Z,5.47
2023-05-07T15:18:51.560Z,4.88
2023-05-07T15:21:19.933Z,5.00
2023-05-07T15:23:48.145Z,5.18
2023-05-07T15:26:17.696Z,4.65
2023-05-07T15:28:46.332Z,4.57
2023-05-07T15:31:14.492Z,4.68
2023-05-07T15:33:42.775Z,4.93
2023-05-07T15:36:11.156Z,4.88
2023-05-07T15:38:39.295Z,4.80
2023-05-07T15:41:07.678Z,4.00
2023-05-07T15:43:47.657Z,4.38
2023-05-07T15:46:20.492Z,4.20
2023-05-07T15:48:48.884Z,4.35
2023-05-07T15:51:17.684Z,4.22
2023-05-07T15:53:45.938Z,4.30
2023-05-07T15:56:15.261Z,3.88
2023-05-07T15:58:44.930Z,4.03
2023-05-07T16:01:13.322Z,3.78
2023-05-07T16:03:42.033Z,3.92
2023-05-07T16:06:14.816Z,3.90
2023-05-07T16:08:44.277Z,3.92
2023-05-07T16:11:12.594Z,3.78
2023-05-07T16:13:40.997Z,3.70
2023-05-07T16:16:10.639Z,3.92
2023-05-07T16:18:38.967Z,3.50
2023-05-07T16:21:08.459Z,3.60
2023-05-07T16:23:37.532Z,3.83
2023-05-07T16:26:06.033Z,3.72
2023-05-07T16:28:34.280Z,3.65
2023-05-07T16:31:02.953Z,4.05
2023-05-07T16:33:33.071Z,4.07
2023-05-07T16:36:02.488Z,3.78
2023-05-07T16:38:33.014Z,3.65
2023-05-07T16:41:01.259Z,3.65
2023-05-07T16:43:29.770Z,3.80
2023-05-07T16:45:58.243Z,3.83
2023-05-07T16:48:27.584Z,3.13
2023-05-07T16:50:57.152Z,3.50
2023-05-07T16:53:25.500Z,3.80
2023-05-07T16:55:56.627Z,3.60
2023-05-07T16:58:25.115Z,3.88
2023-05-07T17:00:53.313Z,3.85
2023-05-07T17:03:24.777Z,4.00
2023-05-07T17:05:53.780Z,3.90
2023-05-07T17:08:23.812Z,3.78
2023-05-07T17:10:52.046Z,4.03
2023-05-07T17:13:34.394Z,3.83
2023-05-07T17:16:03.025Z,3.97
2023-05-07T17:18:37.215Z,4.35
2023-05-07T17:21:13.107Z,4.10
2023-05-07T17:24:31.935Z,4.75
2023-05-07T17:27:00.626Z,4.25
2023-05-07T17:29:28.923Z,4.43
2023-05-07T17:32:00.175Z,4.85
2023-05-07T17:34:28.709Z,4.55
2023-05-07T17:36:59.087Z,4.22
2023-05-07T17:39:28.733Z,4.35
2023-05-07T17:42:09.792Z,4.00
2023-05-07T17:44:37.904Z,4.03
2023-05-07T17:47:07.043Z,4.20
2023-05-07T17:49:35.701Z,3.97
2023-05-07T17:52:04.371Z,4.28
2023-05-07T17:54:34.061Z,3.95
2023-05-07T17:57:02.558Z,4.05
2023-05-07T17:59:30.992Z,3.88
2023-05-07T18:02:02.518Z,3.88
2023-05-07T18:04:31.015Z,3.78
2023-05-07T18:06:59.159Z,4.00
2023-05-07T18:09:27.381Z,3.70
2023-05-07T18:11:57.206Z,3.40
2023-05-07T18:14:26.219Z,4.00
2023-05-07T18:16:55.202Z,3.25
2023-05-07T18:19:23.670Z,3.97
2023-05-07T18:21:52.089Z,4.10
2023-05-07T18:24:20.833Z,4.28
2023-05-07T18:26:49.467Z,4.00
2023-05-07T18:29:19.171Z,4.07
2023-05-07T18:31:47.500Z,4.35
2023-05-07T18:34:16.012Z,4.13
2023-05-07T18:36:44.489Z,4.15
2023-05-07T18:39:12.678Z,4.32
2023-05-07T18:41:41.346Z,3.95
2023-05-07T18:44:10.147Z,3.95
2023-05-07T18:46:39.684Z,4.05
2023-05-07T18:49:07.962Z,4.18
2023-05-07T18:51:36.064Z,4.18
2023-05-07T18:54:04.739Z,3.92
2023-05-07T18:56:33.221Z,4.45
2023-05-07T18:59:01.420Z,4.32
2023-05-07T19:01:30.344Z,4.22
2023-05-07T19:04:00.176Z,4.20
2023-05-07T19:06:31.779Z,4.00
2023-05-07T19:09:01.629Z,4.55
2023-05-07T19:11:30.029Z,3.85
2023-05-07T19:13:58.668Z,4.15
2023-05-07T19:16:27.356Z,4.15
2023-05-07T19:18:55.898Z,4.38
2023-05-07T19:21:28.645Z,4.30
2023-05-07T19:23:58.808Z,4.18
2023-05-07T19:26:27.265Z,4.93
2023-05-07T19:29:12.159Z,4.40
2023-05-07T19:31:44.365Z,3.93
2023-05-07T19:34:14.424Z,4.43
2023-05-07T19:36:44.533Z,4.20
2023-05-07T19:39:13.024Z,4.63
2023-05-07T19:41:41.966Z,4.73
2023-05-07T19:44:10.356Z,4.60
2023-05-07T19:46:42.377Z,4.60
2023-05-07T19:49:12.763Z,4.43
2023-05-07T19:51:41.435Z,5.10
2023-05-07T19:54:11.223Z,4.37
2023-05-07T19:56:39.995Z,4.80
2023-05-07T19:59:08.806Z,4.97
2023-05-07T20:01:40.364Z,4.40
2023-05-07T20:04:09.238Z,4.43
2023-05-07T20:06:37.644Z,4.55
2023-05-07T20:09:07.433Z,4.87
2023-05-07T20:11:37.107Z,4.90
2023-05-07T20:14:05.833Z,4.33
2023-05-07T20:16:34.179Z,4.60
2023-05-07T20:19:02.440Z,4.27
2023-05-07T20:21:31.346Z,4.53
2023-05-07T20:23:59.539Z,4.40
2023-05-07T20:26:28.063Z,4.33
2023-05-07T20:28:57.699Z,4.30
2023-05-07T20:31:26.070Z,4.17
2023-05-07T20:33:54.537Z,4.00
2023-05-07T20:36:25.390Z,3.97
2023-05-07T20:38:53.914Z,4.07
2023-05-07T20:41:24.705Z,4.03
2023-05-07T20:43:53.013Z,4.00
2023-05-07T20:46:23.278Z,3.67
2023-05-07T20:48:52.142Z,3.87
2023-05-07T20:51:20.432Z,4.10
2023-05-07T20:53:49.347Z,3.70
2023-05-07T20:56:17.752Z,4.37
2023-05-07T20:58:46.328Z,4.13
2023-05-07T21:01:14.791Z,4.37
2023-05-07T21:03:46.454Z,4.00
2023-05-07T21:06:14.942Z,3.77
2023-05-07T21:08:46.772Z,3.87
2023-05-07T21:11:15.238Z,3.77
2023-05-07T21:13:46.578Z,3.70
2023-05-07T21:16:15.720Z,3.83
2023-05-07T21:18:48.685Z,3.67
2023-05-07T21:21:17.453Z,4.40
2023-05-07T21:23:46.194Z,3.93
2023-05-07T21:26:19.789Z,4.10
2023-05-07T21:28:48.503Z,4.57
2023-05-07T21:31:18.111Z,4.63
2023-05-07T21:33:54.347Z,4.63
2023-05-07T21:36:23.517Z,5.27
2023-05-07T21:38:52.972Z,5.57
2023-05-07T21:41:21.989Z,5.73
2023-05-07T21:43:50.327Z,5.80
2023-05-07T21:46:19.255Z,5.17
2023-05-07T21:48:52.446Z,5.30
2023-05-07T21:51:20.748Z,4.80
2023-05-07T21:53:48.932Z,4.60
2023-05-07T21:56:17.287Z,4.53
2023-05-07T21:58:45.638Z,4.87
2023-05-07T22:01:14.632Z,5.00
2023-05-07T22:03:45.022Z,4.60
2023-05-07T22:06:17.679Z,4.10
2023-05-07T22:08:46.083Z,4.93
2023-05-07T22:11:14.320Z,5.03
2023-05-07T22:13:42.750Z,4.60
2023-05-07T22:16:11.636Z,4.40
2023-05-07T22:18:40.616Z,4.47
2023-05-07T22:21:09.777Z,5.17
2023-05-07T22:23:39.534Z,4.20
2023-05-07T22:26:26.022Z,4.73
2023-05-07T22:28:55.310Z,4.43
2023-05-07T22:31:28.431Z,4.57
2023-05-07T22:33:58.664Z,4.27
2023-05-07T22:36:27.412Z,5.10
2023-05-07T22:38:57.191Z,4.77
2023-05-07T22:41:25.794Z,4.57
2023-05-07T22:43:54.748Z,4.63
2023-05-07T22:46:23.329Z,4.67
2023-05-07T22:48:51.905Z,5.93
2023-05-07T22:51:20.745Z,6.23
2023-05-07T22:53:52.180Z,6.47
2023-05-07T22:56:23.170Z,6.30
2023-05-07T22:58:55.768Z,6.43
2023-05-07T23:01:25.071Z,5.70
2023-05-07T23:03:53.669Z,5.13
2023-05-07T23:06:23.618Z,6.53
2023-05-07T23:08:55.918Z,6.20
2023-05-07T23:11:28.115Z,6.47
2023-05-07T23:13:56.627Z,6.87
2023-05-07T23:16:25.877Z,6.83
2023-05-07T23:18:57.979Z,6.73
2023-05-07T23:21:33.231Z,7.57
2023-05-07T23:24:01.990Z,7.30
2023-05-07T23:26:32.202Z,7.23
2023-05-07T23:29:01.501Z,7.23
2023-05-07T23:31:30.625Z,7.40
2023-05-07T23:33:59.421Z,7.30
2023-05-07T23:36:28.623Z,7.00
2023-05-07T23:38:57.814Z,6.87
2023-05-07T23:41:26.915Z,6.80
2023-05-07T23:43:57.570Z,5.90
2023-05-07T23:46:27.180Z,5.47
2023-05-07T23:49:03.324Z,5.70
2023-05-07T23:51:32.336Z,5.90
2023-05-07T23:54:01.138Z,6.33
2023-05-07T23:56:32.254Z,6.30
2023-05-07T23:59:03.511Z,6.03
